Time,TemperatureF,DewpointF,PressureIn,WindDirection,WindDirectionDegrees,WindSpeedMPH,WindSpeedGustMPH,Humidity,HourlyPrecipIn,Conditions,Clouds,dailyrainin,SoftwareType,DateUTC
2013-02-10 00:04:00,30.6,28.4,30.33,North,0,0.0,0.0,91,0.00,,,0.00,WUHU216HW,2013-02-10 06:04:00,
2013-02-10 00:12:00,31.0,28.7,30.33,North,0,0.0,0.0,91,0.00,,,0.00,WUHU216HW,2013-02-10 06:12:00,
2013-02-10 00:17:00,31.1,28.9,30.33,North,0,0.0,0.0,91,0.00,,,0.00,WUHU216HW,2013-02-10 06:17:00,
2013-02-10 00:22:00,31.3,29.1,30.33,North,0,0.0,0.0,91,0.00,,,0.00,WUHU216HW,2013-02-10 06:22:00,
2013-02-10 00:26:00,31.3,29.1,30.33,North,0,0.0,0.0,91,0.00,,,0.00,WUHU216HW,2013-02-10 06:26:00,
2013-02-10 00:40:00,32.0,29.5,30.32,North,0,0.0,0.0,90,0.00,,,0.00,WUHU216HW,2013-02-10 06:40:00,
2013-02-10 00:45:00,32.0,29.8,30.32,North,0,0.0,0.0,91,0.00,,,0.00,WUHU216HW,2013-02-10 06:45:00,
2013-02-10 00:50:00,32.2,30.0,30.32,North,0,0.0,0.0,91,0.00,,,0.00,WUHU216HW,2013-02-10 06:50:00,
2013-02-10 00:55:00,32.2,30.0,30.32,North,0,0.0,0.0,91,0.00,,,0.00,WUHU216HW,2013-02-10 06:55:00,
2013-02-10 01:00:00,32.4,30.1,30.31,North,0,0.0,0.0,91,0.00,,,0.00,WUHU216HW,2013-02-10 07:00:00,
2013-02-10 01:05:00,32.4,30.1,30.31,North,0,0.0,0.0,91,0.00,,,0.00,WUHU216HW,2013-02-10 07:05:00,
2013-02-10 01:10:00,32.4,30.1,30.31,North,0,0.0,0.0,91,0.00,,,0.00,WUHU216HW,2013-02-10 07:10:00,
2013-02-10 01:15:00,32.4,30.1,30.31,North,0,0.0,0.0,91,0.00,,,0.00,WUHU216HW,2013-02-10 07:15:00,
2013-02-10 01:20:00,32.6,30.2,30.30,North,0,0.0,0.0,91,0.00,,,0.00,WUHU216HW,2013-02-10 07:20:00,
2013-02-10 01:25:00,32.8,30.4,30.30,North,0,0.0,0.0,91,0.00,,,0.00,WUHU216HW,2013-02-10 07:25:00,
2013-02-10 01:30:00,32.8,30.4,30.29,North,0,0.0,0.0,91,0.00,,,0.00,WUHU216HW,2013-02-10 07:30:00,
2013-02-10 01:35:00,33.1,30.8,30.28,North,0,0.0,0.0,91,0.00,,,0.00,WUHU216HW,2013-02-10 07:35:00,
2013-02-10 01:40:00,33.3,31.0,30.28,North,0,0.0,0.0,91,0.00,,,0.00,WUHU216HW,2013-02-10 07:40:00,
2013-02-10 01:45:00,33.5,30.8,30.29,North,0,0.0,0.0,90,0.00,,,0.00,WUHU216HW,2013-02-10 07:45:00,
2013-02-10 01:50:00,33.5,30.8,30.29,North,0,0.0,0.0,90,0.00,,,0.00,WUHU216HW,2013-02-10 07:50:00,
2013-02-10 01:55:00,33.8,31.1,30.29,North,0,0.0,0.0,90,0.00,,,0.00,WUHU216HW,2013-02-10 07:55:00,
2013-02-10 02:00:00,33.8,31.1,30.28,North,0,0.0,0.0,90,0.00,,,0.00,WUHU216HW,2013-02-10 08:00:00,
2013-02-10 02:05:00,33.8,31.1,30.28,North,0,0.0,0.0,90,0.00,,,0.00,WUHU216HW,2013-02-10 08:05:00,
2013-02-10 02:10:00,33.8,31.1,30.28,North,0,0.0,0.0,90,0.00,,,0.00,WUHU216HW,2013-02-10 08:10:00,
2013-02-10 02:15:00,34.0,31.3,30.28,North,0,0.0,0.0,90,0.00,,,0.00,WUHU216HW,2013-02-10 08:15:00,
2013-02-10 02:20:00,34.0,31.3,30.27,North,0,0.0,0.0,90,0.00,,,0.00,WUHU216HW,2013-02-10 08:20:00,
2013-02-10 02:25:00,34.0,31.3,30.27,North,0,0.0,0.0,90,0.00,,,0.00,WUHU216HW,2013-02-10 08:25:00,
2013-02-10 02:30:00,34.0,31.3,30.26,North,0,0.0,0.0,90,0.00,,,0.00,WUHU216HW,2013-02-10 08:30:00,
2013-02-10 02:35:00,34.0,31.3,30.26,North,0,0.0,0.0,90,0.00,,,0.00,WUHU216HW,2013-02-10 08:35:00,
2013-02-10 02:40:00,34.0,31.3,30.26,North,0,0.0,0.0,90,0.00,,,0.00,WUHU216HW,2013-02-10 08:40:00,
2013-02-10 02:45:00,34.0,31.3,30.26,North,0,0.0,0.0,90,0.00,,,0.00,WUHU216HW,2013-02-10 08:45:00,
2013-02-10 02:50:00,34.0,31.3,30.25,North,0,0.0,0.0,90,0.00,,,0.00,WUHU216HW,2013-02-10 08:50:00,
2013-02-10 02:55:00,34.0,31.3,30.26,North,0,0.0,0.0,90,0.00,,,0.00,WUHU216HW,2013-02-10 08:55:00,
2013-02-10 03:00:00,34.2,31.5,30.25,North,0,0.0,0.0,90,0.00,,,0.00,WUHU216HW,2013-02-10 09:00:00,
2013-02-10 03:05:00,34.2,31.5,30.25,North,0,0.0,0.0,90,0.00,,,0.00,WUHU216HW,2013-02-10 09:05:00,
2013-02-10 03:10:00,34.2,31.5,30.25,North,0,0.0,0.0,90,0.00,,,0.00,WUHU216HW,2013-02-10 09:10:00,
2013-02-10 03:15:00,34.4,31.7,30.25,North,0,0.0,0.0,90,0.00,,,0.00,WUHU216HW,2013-02-10 09:15:00,
2013-02-10 03:20:00,34.4,31.7,30.25,North,0,0.0,0.0,90,0.00,,,0.00,WUHU216HW,2013-02-10 09:20:00,
2013-02-10 03:25:00,34.6,31.9,30.24,North,0,0.0,0.0,90,0.00,,,0.00,WUHU216HW,2013-02-10 09:25:00,
2013-02-10 03:30:00,34.6,31.9,30.23,North,0,0.0,0.0,90,0.00,,,0.00,WUHU216HW,2013-02-10 09:30:00,
2013-02-10 03:35:00,34.6,31.9,30.23,North,0,0.0,0.0,90,0.00,,,0.00,WUHU216HW,2013-02-10 09:35:00,
2013-02-10 03:40:00,34.7,32.0,30.22,North,0,0.0,0.0,90,0.01,,,0.01,WUHU216HW,2013-02-10 09:40:00,
2013-02-10 03:45:00,34.7,32.3,30.22,North,0,0.0,0.0,91,0.01,,,0.01,WUHU216HW,2013-02-10 09:45:00,
2013-02-10 03:50:00,34.7,32.3,30.22,North,0,0.0,0.0,91,0.01,,,0.01,WUHU216HW,2013-02-10 09:50:00,
2013-02-10 03:55:00,34.7,32.3,30.22,North,0,0.0,0.0,91,0.01,,,0.01,WUHU216HW,2013-02-10 09:55:00,
2013-02-10 04:00:00,34.7,32.3,30.22,North,0,0.0,0.0,91,0.01,,,0.01,WUHU216HW,2013-02-10 10:00:00,
2013-02-10 04:05:00,34.7,32.3,30.22,North,0,0.0,0.0,91,0.01,,,0.01,WUHU216HW,2013-02-10 10:05:00,
2013-02-10 04:26:00,34.7,32.3,30.21,North,0,0.0,0.0,91,0.02,,,0.01,WUHU216HW,2013-02-10 10:26:00,
2013-02-10 04:31:00,34.7,32.3,30.21,North,0,0.0,0.0,91,0.03,,,0.02,WUHU216HW,2013-02-10 10:31:00,
2013-02-10 04:36:00,34.7,32.3,30.21,North,0,0.0,0.0,91,0.03,,,0.02,WUHU216HW,2013-02-10 10:36:00,
2013-02-10 05:59:00,34.9,33.0,30.14,North,0,0.0,0.0,93,0.01,,,0.03,WUHU216HW,2013-02-10 11:59:00,
2013-02-10 06:04:00,34.9,33.0,30.14,North,0,0.0,0.0,93,0.01,,,0.03,WUHU216HW,2013-02-10 12:04:00,
2013-02-10 09:59:00,36.9,35.0,29.97,North,0,0.0,0.0,93,0.12,,,0.04,WUHU216HW,2013-02-10 15:59:00,
2013-02-10 10:04:00,37.1,35.2,29.96,North,0,0.0,0.0,93,0.11,,,0.17,WUHU216HW,2013-02-10 16:04:00,
2013-02-10 10:09:00,37.1,35.2,29.96,North,0,0.0,0.0,93,0.10,,,0.17,WUHU216HW,2013-02-10 16:09:00,
2013-02-10 10:14:00,37.3,35.4,29.94,North,0,0.0,0.0,93,0.09,,,0.17,WUHU216HW,2013-02-10 16:14:00,
2013-02-10 10:19:00,37.4,35.8,29.94,North,0,0.0,0.0,94,0.08,,,0.17,WUHU216HW,2013-02-10 16:19:00,
2013-02-10 10:24:00,37.4,35.8,29.94,North,0,0.0,0.0,94,0.06,,,0.17,WUHU216HW,2013-02-10 16:24:00,
2013-02-10 10:29:00,37.6,36.0,29.93,North,0,0.0,0.0,94,0.05,,,0.17,WUHU216HW,2013-02-10 16:29:00,
2013-02-10 10:34:00,37.6,36.0,29.93,North,0,0.0,0.0,94,0.04,,,0.18,WUHU216HW,2013-02-10 16:34:00,
2013-02-10 10:39:00,37.8,36.2,29.92,North,0,0.0,0.0,94,0.04,,,0.18,WUHU216HW,2013-02-10 16:39:00,
2013-02-10 10:44:00,38.0,36.4,29.91,North,0,0.0,0.0,94,0.02,,,0.18,WUHU216HW,2013-02-10 16:44:00,
2013-02-10 10:49:00,38.2,36.5,29.91,North,0,0.0,0.0,94,0.02,,,0.18,WUHU216HW,2013-02-10 16:49:00,
2013-02-10 10:54:00,38.3,36.7,29.91,North,0,0.0,0.0,94,0.01,,,0.18,WUHU216HW,2013-02-10 16:54:00,
2013-02-10 10:59:00,38.5,36.9,29.91,North,0,0.0,0.0,94,0.01,,,0.18,WUHU216HW,2013-02-10 16:59:00,
2013-02-10 11:04:00,38.3,36.7,29.90,North,0,0.0,0.0,94,0.01,,,0.18,WUHU216HW,2013-02-10 17:04:00,
2013-02-10 11:09:00,38.5,36.9,29.90,North,0,0.0,0.0,94,0.01,,,0.18,WUHU216HW,2013-02-10 17:09:00,
2013-02-10 11:15:00,38.5,36.9,29.89,North,0,0.0,0.0,94,0.01,,,0.18,WUHU216HW,2013-02-10 17:15:00,
2013-02-10 11:20:00,38.7,37.1,29.89,North,0,0.0,0.0,94,0.01,,,0.18,WUHU216HW,2013-02-10 17:20:00,
2013-02-10 11:25:00,38.9,37.3,29.87,North,0,0.0,0.0,94,0.01,,,0.18,WUHU216HW,2013-02-10 17:25:00,
2013-02-10 11:30:00,39.2,37.6,29.86,North,0,0.0,0.0,94,0.01,,,0.19,WUHU216HW,2013-02-10 17:30:00,
2013-02-10 11:35:00,39.4,37.8,29.85,North,0,0.0,0.0,94,0.01,,,0.19,WUHU216HW,2013-02-10 17:35:00,
2013-02-10 11:40:00,39.6,38.0,29.84,North,0,0.0,0.0,94,0.01,,,0.19,WUHU216HW,2013-02-10 17:40:00,
2013-02-10 11:45:00,39.8,38.2,29.83,North,0,0.0,0.0,94,0.01,,,0.19,WUHU216HW,2013-02-10 17:45:00,
2013-02-10 11:50:00,40.0,38.3,29.83,North,0,0.0,0.0,94,0.01,,,0.19,WUHU216HW,2013-02-10 17:50:00,
2013-02-10 11:55:00,40.1,38.5,29.83,North,0,0.0,0.0,94,0.01,,,0.19,WUHU216HW,2013-02-10 17:55:00,
2013-02-10 12:00:00,40.3,39.0,29.82,North,0,0.0,0.0,95,0.01,,,0.19,WUHU216HW,2013-02-10 18:00:00,
2013-02-10 12:05:00,40.7,39.3,29.81,North,0,0.0,0.0,95,0.01,,,0.19,WUHU216HW,2013-02-10 18:05:00,
2013-02-10 12:10:00,40.7,39.3,29.82,North,0,0.0,0.0,95,0.01,,,0.19,WUHU216HW,2013-02-10 18:10:00,
2013-02-10 12:15:00,40.7,39.3,29.82,North,0,0.0,0.0,95,0.01,,,0.19,WUHU216HW,2013-02-10 18:15:00,
2013-02-10 12:20:00,40.9,39.5,29.82,North,0,0.0,0.0,95,0.01,,,0.19,WUHU216HW,2013-02-10 18:20:00,
2013-02-10 12:25:00,40.9,39.5,29.82,North,0,0.0,0.0,95,0.01,,,0.19,WUHU216HW,2013-02-10 18:25:00,
2013-02-10 12:30:00,41.0,39.7,29.82,North,0,0.0,0.0,95,0.00,,,0.19,WUHU216HW,2013-02-10 18:30:00,
2013-02-10 12:35:00,41.2,39.9,29.81,North,0,0.0,0.0,95,0.01,,,0.20,WUHU216HW,2013-02-10 18:35:00,
2013-02-10 12:40:00,41.4,40.1,29.81,North,0,0.0,0.0,95,0.01,,,0.20,WUHU216HW,2013-02-10 18:40:00,
2013-02-10 12:45:00,41.4,40.1,29.81,North,0,0.0,0.0,95,0.02,,,0.21,WUHU216HW,2013-02-10 18:45:00,
2013-02-10 12:50:00,41.6,40.2,29.80,North,0,0.0,0.0,95,0.02,,,0.21,WUHU216HW,2013-02-10 18:50:00,
2013-02-10 12:55:00,41.8,40.4,29.79,North,0,0.0,0.0,95,0.02,,,0.21,WUHU216HW,2013-02-10 18:55:00,
2013-02-10 13:00:00,41.9,40.6,29.79,North,0,0.0,0.0,95,0.02,,,0.21,WUHU216HW,2013-02-10 19:00:00,
2013-02-10 13:05:00,42.1,40.8,29.79,North,0,0.0,0.0,95,0.02,,,0.21,WUHU216HW,2013-02-10 19:05:00,
2013-02-10 13:10:00,42.1,40.8,29.79,North,0,0.0,0.0,95,0.02,,,0.21,WUHU216HW,2013-02-10 19:10:00,
2013-02-10 13:15:00,42.1,40.8,29.78,North,0,0.0,0.0,95,0.02,,,0.21,WUHU216HW,2013-02-10 19:15:00,
2013-02-10 13:20:00,42.1,40.8,29.78,North,0,0.0,0.0,95,0.02,,,0.21,WUHU216HW,2013-02-10 19:20:00,
2013-02-10 13:25:00,42.3,41.0,29.78,North,0,0.0,0.0,95,0.02,,,0.21,WUHU216HW,2013-02-10 19:25:00,
2013-02-10 13:30:00,42.5,41.1,29.78,North,0,0.0,0.0,95,0.01,,,0.21,WUHU216HW,2013-02-10 19:30:00,
2013-02-10 13:35:00,42.5,41.1,29.78,North,0,0.0,0.0,95,0.01,,,0.21,WUHU216HW,2013-02-10 19:35:00,
2013-02-10 13:40:00,42.7,41.3,29.77,North,0,0.0,0.0,95,0.00,,,0.21,WUHU216HW,2013-02-10 19:40:00,
2013-02-10 13:45:00,42.8,41.5,29.77,North,0,0.0,0.0,95,0.00,,,0.21,WUHU216HW,2013-02-10 19:45:00,
2013-02-10 13:50:00,42.8,41.5,29.77,North,0,0.0,0.0,95,0.00,,,0.21,WUHU216HW,2013-02-10 19:50:00,
2013-02-10 13:55:00,43.0,41.7,29.77,North,0,0.0,0.0,95,0.00,,,0.21,WUHU216HW,2013-02-10 19:55:00,
2013-02-10 14:00:00,43.2,41.9,29.76,North,0,0.0,0.0,95,0.00,,,0.21,WUHU216HW,2013-02-10 20:00:00,
2013-02-10 14:05:00,43.4,42.0,29.76,North,0,0.0,0.0,95,0.00,,,0.21,WUHU216HW,2013-02-10 20:05:00,
2013-02-10 14:10:00,43.6,42.2,29.75,North,0,0.0,0.0,95,0.00,,,0.21,WUHU216HW,2013-02-10 20:10:00,
2013-02-10 14:15:00,43.9,42.6,29.75,North,0,0.0,0.0,95,0.00,,,0.21,WUHU216HW,2013-02-10 20:15:00,
2013-02-10 14:20:00,44.1,42.5,29.75,North,0,0.0,0.0,94,0.00,,,0.21,WUHU216HW,2013-02-10 20:20:00,
2013-02-10 14:25:00,44.5,42.8,29.74,North,0,0.0,0.0,94,0.00,,,0.21,WUHU216HW,2013-02-10 20:25:00,
2013-02-10 14:30:00,44.6,43.0,29.73,North,0,0.0,0.0,94,0.00,,,0.21,WUHU216HW,2013-02-10 20:30:00,
2013-02-10 14:35:00,44.8,43.2,29.73,North,0,0.0,0.0,94,0.00,,,0.21,WUHU216HW,2013-02-10 20:35:00,
2013-02-10 14:40:00,45.0,43.4,29.72,North,0,0.0,0.0,94,0.00,,,0.21,WUHU216HW,2013-02-10 20:40:00,
2013-02-10 14:45:00,45.2,43.6,29.72,North,0,0.0,0.0,94,0.00,,,0.21,WUHU216HW,2013-02-10 20:45:00,
2013-02-10 14:50:00,45.2,43.6,29.73,North,0,0.0,0.0,94,0.00,,,0.21,WUHU216HW,2013-02-10 20:50:00,
2013-02-10 14:55:00,45.4,43.7,29.73,North,0,0.0,0.0,94,0.00,,,0.21,WUHU216HW,2013-02-10 20:55:00,
2013-02-10 15:00:00,45.4,43.7,29.73,North,0,0.0,0.0,94,0.00,,,0.21,WUHU216HW,2013-02-10 21:00:00,
2013-02-10 15:05:00,45.4,43.7,29.72,North,0,0.0,0.0,94,0.00,,,0.21,WUHU216HW,2013-02-10 21:05:00,
2013-02-10 15:10:00,45.4,43.7,29.72,North,0,0.0,0.0,94,0.00,,,0.21,WUHU216HW,2013-02-10 21:10:00,
2013-02-10 15:15:00,45.4,43.7,29.72,North,0,0.0,0.0,94,0.00,,,0.21,WUHU216HW,2013-02-10 21:15:00,
2013-02-10 15:20:00,45.5,43.9,29.72,North,0,0.0,0.0,94,0.00,,,0.21,WUHU216HW,2013-02-10 21:20:00,
2013-02-10 15:25:00,45.5,43.9,29.71,North,0,0.0,0.0,94,0.00,,,0.21,WUHU216HW,2013-02-10 21:25:00,
2013-02-10 15:30:00,45.5,43.9,29.71,North,0,0.0,0.0,94,0.00,,,0.21,WUHU216HW,2013-02-10 21:30:00,
2013-02-10 15:35:00,45.7,44.1,29.70,North,0,0.0,0.0,94,0.00,,,0.21,WUHU216HW,2013-02-10 21:35:00,
2013-02-10 15:40:00,45.7,44.1,29.70,North,0,0.0,0.0,94,0.00,,,0.21,WUHU216HW,2013-02-10 21:40:00,
2013-02-10 15:45:00,45.9,44.6,29.70,North,0,0.0,0.0,95,0.00,,,0.21,WUHU216HW,2013-02-10 21:45:00,
2013-02-10 15:50:00,46.1,44.7,29.70,North,0,0.0,0.0,95,0.00,,,0.21,WUHU216HW,2013-02-10 21:50:00,
2013-02-10 15:55:00,46.3,44.6,29.70,North,0,0.0,0.0,94,0.00,,,0.21,WUHU216HW,2013-02-10 21:55:00,
2013-02-10 16:00:00,46.3,44.6,29.70,North,0,0.0,0.0,94,0.00,,,0.21,WUHU216HW,2013-02-10 22:00:00,
2013-02-10 16:05:00,46.4,44.8,29.70,North,0,0.0,0.0,94,0.00,,,0.21,WUHU216HW,2013-02-10 22:05:00,
2013-02-10 16:10:00,46.4,44.8,29.70,North,0,0.0,0.0,94,0.00,,,0.21,WUHU216HW,2013-02-10 22:10:00,
2013-02-10 16:15:00,46.4,44.8,29.70,North,0,0.0,0.0,94,0.00,,,0.21,WUHU216HW,2013-02-10 22:15:00,
2013-02-10 16:20:00,46.4,44.8,29.69,North,0,0.0,0.0,94,0.00,,,0.21,WUHU216HW,2013-02-10 22:20:00,
2013-02-10 16:25:00,46.4,44.8,29.69,North,0,0.0,0.0,94,0.00,,,0.21,WUHU216HW,2013-02-10 22:25:00,
2013-02-10 16:30:00,46.6,45.0,29.69,North,0,0.0,0.0,94,0.00,,,0.21,WUHU216HW,2013-02-10 22:30:00,
2013-02-10 16:35:00,46.6,45.0,29.69,North,0,0.0,0.0,94,0.00,,,0.21,WUHU216HW,2013-02-10 22:35:00,
2013-02-10 16:40:00,46.4,44.8,29.69,North,0,0.0,0.0,94,0.00,,,0.21,WUHU216HW,2013-02-10 22:40:00,
2013-02-10 16:45:00,46.6,45.0,29.69,North,0,0.0,0.0,94,0.00,,,0.21,WUHU216HW,2013-02-10 22:45:00,
2013-02-10 16:50:00,46.6,45.0,29.69,North,0,0.0,0.0,94,0.00,,,0.21,WUHU216HW,2013-02-10 22:50:00,
2013-02-10 16:55:00,46.8,45.2,29.69,North,0,0.0,0.0,94,0.00,,,0.21,WUHU216HW,2013-02-10 22:55:00,
2013-02-10 17:00:00,46.8,45.2,29.69,North,0,0.0,0.0,94,0.00,,,0.21,WUHU216HW,2013-02-10 23:00:00,
2013-02-10 17:05:00,47.0,45.4,29.68,North,0,0.0,0.0,94,0.00,,,0.21,WUHU216HW,2013-02-10 23:05:00,
2013-02-10 17:10:00,47.2,45.5,29.69,North,0,0.0,0.0,94,0.00,,,0.21,WUHU216HW,2013-02-10 23:10:00,
2013-02-10 17:15:00,47.2,45.5,29.69,North,0,0.0,0.0,94,0.00,,,0.21,WUHU216HW,2013-02-10 23:15:00,
2013-02-10 17:20:00,47.2,45.3,29.69,North,0,0.0,0.0,93,0.00,,,0.21,WUHU216HW,2013-02-10 23:20:00,
2013-02-10 17:25:00,47.2,45.3,29.69,North,0,0.0,0.0,93,0.00,,,0.21,WUHU216HW,2013-02-10 23:25:00,
2013-02-10 17:30:00,47.2,45.3,29.69,North,0,0.0,0.0,93,0.00,,,0.21,WUHU216HW,2013-02-10 23:30:00,
2013-02-10 17:35:00,47.2,45.3,29.69,North,0,0.0,0.0,93,0.00,,,0.21,WUHU216HW,2013-02-10 23:35:00,
2013-02-10 17:40:00,47.2,45.3,29.69,North,0,0.0,0.0,93,0.00,,,0.21,WUHU216HW,2013-02-10 23:40:00,
2013-02-10 17:45:00,47.2,45.3,29.69,North,0,0.0,0.0,93,0.00,,,0.21,WUHU216HW,2013-02-10 23:45:00,
2013-02-10 17:50:00,46.8,44.9,29.69,North,0,0.0,0.0,93,0.00,,,0.21,WUHU216HW,2013-02-10 23:50:00,
2013-02-10 17:55:00,46.6,44.7,29.70,North,0,0.0,0.0,93,0.00,,,0.21,WUHU216HW,2013-02-10 23:55:00,
2013-02-10 18:00:00,46.4,44.6,29.70,North,0,0.0,0.0,93,0.00,,,0.21,WUHU216HW,2013-02-11 00:00:00,
2013-02-10 18:05:00,46.4,44.6,29.70,North,0,0.0,0.0,93,0.00,,,0.21,WUHU216HW,2013-02-11 00:05:00,
2013-02-10 18:10:00,46.4,44.6,29.70,North,0,0.0,0.0,93,0.00,,,0.21,WUHU216HW,2013-02-11 00:10:00,
2013-02-10 18:15:00,46.4,44.6,29.70,North,0,0.0,0.0,93,0.00,,,0.21,WUHU216HW,2013-02-11 00:15:00,
2013-02-10 18:20:00,46.4,44.6,29.71,North,0,0.0,0.0,93,0.00,,,0.21,WUHU216HW,2013-02-11 00:20:00,
2013-02-10 18:25:00,46.6,44.7,29.71,North,0,0.0,0.0,93,0.00,,,0.21,WUHU216HW,2013-02-11 00:25:00,
2013-02-10 18:30:00,46.6,44.7,29.71,North,0,0.0,0.0,93,0.00,,,0.21,WUHU216HW,2013-02-11 00:30:00,
2013-02-10 18:35:00,46.6,44.7,29.71,North,0,0.0,0.0,93,0.00,,,0.21,WUHU216HW,2013-02-11 00:35:00,
2013-02-10 18:40:00,46.6,44.7,29.71,North,0,0.0,0.0,93,0.00,,,0.21,WUHU216HW,2013-02-11 00:40:00,
2013-02-10 18:52:00,46.4,44.6,29.72,North,0,0.0,0.0,93,0.00,,,0.21,WUHU216HW,2013-02-11 00:52:00,
2013-02-10 18:57:00,46.4,44.6,29.72,North,0,0.0,0.0,93,0.00,,,0.21,WUHU216HW,2013-02-11 00:57:00,
2013-02-10 19:02:00,46.4,44.3,29.73,North,0,0.0,0.0,92,0.00,,,0.21,WUHU216HW,2013-02-11 01:02:00,
2013-02-10 19:07:00,46.4,43.5,29.73,North,0,0.0,0.0,89,0.00,,,0.21,WUHU216HW,2013-02-11 01:07:00,
2013-02-10 19:12:00,46.6,42.7,29.72,North,0,0.0,0.0,86,0.00,,,0.21,WUHU216HW,2013-02-11 01:12:00,
2013-02-10 19:17:00,46.6,42.7,29.72,North,0,0.0,0.0,86,0.00,,,0.21,WUHU216HW,2013-02-11 01:17:00,
2013-02-10 19:22:00,46.8,42.6,29.73,North,0,0.0,0.0,85,0.00,,,0.21,WUHU216HW,2013-02-11 01:22:00,
2013-02-10 19:27:00,46.6,41.1,29.73,North,0,0.0,0.0,81,0.00,,,0.21,WUHU216HW,2013-02-11 01:27:00,
2013-02-10 19:32:00,46.6,39.8,29.73,North,0,0.0,0.0,77,0.00,,,0.21,WUHU216HW,2013-02-11 01:32:00,
2013-02-10 19:37:00,46.6,39.8,29.73,North,0,0.0,0.0,77,0.00,,,0.21,WUHU216HW,2013-02-11 01:37:00,
2013-02-10 19:42:00,46.6,39.8,29.74,North,0,0.0,0.0,77,0.00,,,0.21,WUHU216HW,2013-02-11 01:42:00,
2013-02-10 19:47:00,46.4,39.0,29.74,North,0,0.0,0.0,75,0.00,,,0.21,WUHU216HW,2013-02-11 01:47:00,
2013-02-10 19:52:00,46.3,37.8,29.74,North,0,0.0,0.0,72,0.00,,,0.21,WUHU216HW,2013-02-11 01:52:00,
2013-02-10 19:57:00,46.1,38.6,29.75,North,0,0.0,0.0,75,0.00,,,0.21,WUHU216HW,2013-02-11 01:57:00,
2013-02-10 20:02:00,46.1,39.0,29.75,North,0,0.0,0.0,76,0.00,,,0.21,WUHU216HW,2013-02-11 02:02:00,
2013-02-10 20:07:00,46.1,37.9,29.75,North,0,0.0,0.0,73,0.00,,,0.21,WUHU216HW,2013-02-11 02:07:00,
2013-02-10 20:12:00,46.1,37.9,29.75,North,0,0.0,0.0,73,0.00,,,0.21,WUHU216HW,2013-02-11 02:12:00,
2013-02-10 20:29:00,45.7,37.5,29.76,North,0,0.0,0.0,73,0.00,,,0.21,WUHU216HW,2013-02-11 02:29:00,
2013-02-10 20:34:00,45.5,36.4,29.76,North,0,0.0,0.0,70,0.00,,,0.21,WUHU216HW,2013-02-11 02:34:00,
2013-02-10 20:39:00,45.5,37.4,29.77,North,0,0.0,0.0,73,0.00,,,0.21,WUHU216HW,2013-02-11 02:39:00,
2013-02-10 20:44:00,45.5,37.4,29.77,North,0,0.0,0.0,73,0.00,,,0.21,WUHU216HW,2013-02-11 02:44:00,